sensor_id;sensor_type;location;lat;lon;timestamp;pressure;altitude;pressure_sealevel;temperature;humidity
25947;BME280;13745;51.470;9.894;2023-04-08T00:00:58;99793.69;;;10.82;49.48
25947;BME280;13745;51.470;9.894;2023-04-08T00:03:43;99794.56;;;10.86;49.49
25947;BME280;13745;51.470;9.894;2023-04-08T00:06:29;99794.56;;;10.86;49.33
25947;BME280;13745;51.470;9.894;2023-04-08T00:09:14;99801.44;;;10.88;49.29
25947;BME280;13745;51.470;9.894;2023-04-08T00:11:59;99804.03;;;10.90;49.39
25947;BME280;13745;51.470;9.894;2023-04-08T00:14:45;99795.38;;;10.91;49.43
25947;BME280;13745;51.470;9.894;2023-04-08T00:17:31;99787.59;;;10.91;49.39
25947;BME280;13745;51.470;9.894;2023-04-08T00:20:16;99791.03;;;10.93;49.57
25947;BME280;13745;51.470;9.894;2023-04-08T00:23:02;99794.50;;;10.93;49.61
25947;BME280;13745;51.470;9.894;2023-04-08T00:25:47;99799.66;;;10.95;49.82
25947;BME280;13745;51.470;9.894;2023-04-08T00:28:32;99795.31;;;10.97;49.64
25947;BME280;13745;51.470;9.894;2023-04-08T00:31:17;99792.75;;;10.95;49.79
25947;BME280;13745;51.470;9.894;2023-04-08T00:34:03;99792.72;;;10.97;49.51
25947;BME280;13745;51.470;9.894;2023-04-08T00:36:48;99791.00;;;10.97;49.71
25947;BME280;13745;51.470;9.894;2023-04-08T00:39:35;99788.38;;;10.99;49.97
25947;BME280;13745;51.470;9.894;2023-04-08T00:42:20;99788.41;;;11.01;50.14
25947;BME280;13745;51.470;9.894;2023-04-08T00:45:07;99791.00;;;11.01;49.93
25947;BME280;13745;51.470;9.894;2023-04-08T00:47:52;99789.25;;;11.01;49.94
25947;BME280;13745;51.470;9.894;2023-04-08T00:50:39;99783.22;;;11.01;50.07
25947;BME280;13745;51.470;9.894;2023-04-08T00:53:24;99790.94;;;11.04;50.24
25947;BME280;13745;51.470;9.894;2023-04-08T00:56:09;99791.81;;;11.04;50.34
25947;BME280;13745;51.470;9.894;2023-04-08T00:58:54;99791.81;;;11.04;50.66
25947;BME280;13745;51.470;9.894;2023-04-08T01:01:42;99788.34;;;11.04;50.32
25947;BME280;13745;51.470;9.894;2023-04-08T01:04:32;99796.97;;;11.06;50.85
25947;BME280;13745;51.470;9.894;2023-04-08T01:07:26;99790.91;;;11.07;50.94
25947;BME280;13745;51.470;9.894;2023-04-08T01:10:17;99794.38;;;11.06;51.00
25947;BME280;13745;51.470;9.894;2023-04-08T01:13:05;99785.72;;;11.07;51.13
25947;BME280;13745;51.470;9.894;2023-04-08T01:15:53;99784.88;;;11.06;51.21
25947;BME280;13745;51.470;9.894;2023-04-08T01:18:41;99787.44;;;11.08;51.68
25947;BME280;13745;51.470;9.894;2023-04-08T01:21:28;99777.91;;;11.08;51.30
25947;BME280;13745;51.470;9.894;2023-04-08T01:24:21;99774.47;;;11.08;51.95
25947;BME280;13745;51.470;9.894;2023-04-08T01:27:09;99775.31;;;11.08;51.81
25947;BME280;13745;51.470;9.894;2023-04-08T01:29:55;99774.47;;;11.11;52.12
25947;BME280;13745;51.470;9.894;2023-04-08T01:32:43;99770.13;;;11.11;52.36
25947;BME280;13745;51.470;9.894;2023-04-08T01:35:29;99786.56;;;11.12;52.64
25947;BME280;13745;51.470;9.894;2023-04-08T01:38:17;99788.25;;;11.14;53.21
25947;BME280;13745;51.470;9.894;2023-04-08T01:41:03;99783.06;;;11.14;52.96
25947;BME280;13745;51.470;9.894;2023-04-08T01:43:50;99782.19;;;11.14;52.93
25947;BME280;13745;51.470;9.894;2023-04-08T01:46:36;99788.25;;;11.14;53.43
25947;BME280;13745;51.470;9.894;2023-04-08T01:49:23;99796.03;;;11.14;53.36
25947;BME280;13745;51.470;9.894;2023-04-08T01:52:10;99795.19;;;11.12;53.65
25947;BME280;13745;51.470;9.894;2023-04-08T01:54:56;99792.59;;;11.12;53.77
25947;BME280;13745;51.470;9.894;2023-04-08T01:57:43;99793.47;;;11.11;54.04
25947;BME280;13745;51.470;9.894;2023-04-08T02:00:33;99790.03;;;11.08;54.16
25947;BME280;13745;51.470;9.894;2023-04-08T02:03:21;99787.47;;;11.06;54.66
25947;BME280;13745;51.470;9.894;2023-04-08T02:06:07;99794.38;;;11.06;54.20
25947;BME280;13745;51.470;9.894;2023-04-08T02:08:53;99792.66;;;11.05;54.89
25947;BME280;13745;51.470;9.894;2023-04-08T02:11:38;99792.69;;;11.03;55.07
25947;BME280;13745;51.470;9.894;2023-04-08T02:14:23;99797.00;;;11.04;55.21
25947;BME280;13745;51.470;9.894;2023-04-08T02:17:11;99791.81;;;11.04;55.49
25947;BME280;13745;51.470;9.894;2023-04-08T02:20:02;99800.44;;;11.05;55.32
25947;BME280;13745;51.470;9.894;2023-04-08T02:22:56;99797.84;;;11.05;55.72
25947;BME280;13745;51.470;9.894;2023-04-08T02:25:44;99795.25;;;11.06;55.57
25947;BME280;13745;51.470;9.894;2023-04-08T02:28:32;99790.06;;;11.05;55.92
25947;BME280;13745;51.470;9.894;2023-04-08T02:31:19;99803.03;;;11.05;56.16
25947;BME280;13745;51.470;9.894;2023-04-08T02:34:07;99799.59;;;11.04;56.38
25947;BME280;13745;51.470;9.894;2023-04-08T02:36:53;99800.44;;;11.05;56.40
25947;BME280;13745;51.470;9.894;2023-04-08T02:39:39;99801.31;;;11.05;56.52
25947;BME280;13745;51.470;9.894;2023-04-08T02:42:24;99803.03;;;11.05;56.31
25947;BME280;13745;51.470;9.894;2023-04-08T02:45:10;99800.44;;;11.05;56.62
25947;BME280;13745;51.470;9.894;2023-04-08T02:47:56;99799.56;;;11.06;56.63
25947;BME280;13745;51.470;9.894;2023-04-08T02:50:42;99801.31;;;11.05;56.85
25947;BME280;13745;51.470;9.894;2023-04-08T02:53:27;99801.34;;;11.02;57.06
25947;BME280;13745;51.470;9.894;2023-04-08T02:56:12;99810.00;;;11.01;56.81
25947;BME280;13745;51.470;9.894;2023-04-08T02:58:57;99810.88;;;10.98;57.06
25947;BME280;13745;51.470;9.894;2023-04-08T03:01:42;99810.03;;;10.95;57.55
25947;BME280;13745;51.470;9.894;2023-04-08T03:04:28;99803.16;;;10.91;57.33
25947;BME280;13745;51.470;9.894;2023-04-08T03:07:14;99802.28;;;10.90;57.83
25947;BME280;13745;51.470;9.894;2023-04-08T03:09:59;99810.06;;;10.90;57.81
25947;BME280;13745;51.470;9.894;2023-04-08T03:12:44;99811.81;;;10.88;57.96
25947;BME280;13745;51.470;9.894;2023-04-08T03:15:29;99813.59;;;10.85;57.84
25947;BME280;13745;51.470;9.894;2023-04-08T03:18:14;99813.59;;;10.82;58.25
25947;BME280;13745;51.470;9.894;2023-04-08T03:21:00;99811.91;;;10.78;58.35
25947;BME280;13745;51.470;9.894;2023-04-08T03:23:47;99814.50;;;10.75;58.37
25947;BME280;13745;51.470;9.894;2023-04-08T03:26:32;99816.25;;;10.74;58.48
25947;BME280;13745;51.470;9.894;2023-04-08T03:29:17;99808.47;;;10.73;58.44
25947;BME280;13745;51.470;9.894;2023-04-08T03:32:03;99809.38;;;10.70;58.73
25947;BME280;13745;51.470;9.894;2023-04-08T03:34:48;99813.69;;;10.71;58.90
25947;BME280;13745;51.470;9.894;2023-04-08T03:37:33;99814.53;;;10.73;58.89
25947;BME280;13745;51.470;9.894;2023-04-08T03:40:20;99818.00;;;10.72;59.42
25947;BME280;13745;51.470;9.894;2023-04-08T03:43:05;99810.22;;;10.72;58.92
25947;BME280;13745;51.470;9.894;2023-04-08T03:45:51;99822.31;;;10.72;59.28
25947;BME280;13745;51.470;9.894;2023-04-08T03:48:36;99817.16;;;10.68;59.18
25947;BME280;13745;51.470;9.894;2023-04-08T03:51:21;99827.53;;;10.68;59.41
25947;BME280;13745;51.470;9.894;2023-04-08T03:54:06;99814.56;;;10.65;59.75
25947;BME280;13745;51.470;9.894;2023-04-08T03:56:52;99821.53;;;10.62;59.69
25947;BME280;13745;51.470;9.894;2023-04-08T03:59:38;99820.66;;;10.61;59.72
25947;BME280;13745;51.470;9.894;2023-04-08T04:02:24;99817.22;;;10.61;59.85
25947;BME280;13745;51.470;9.894;2023-04-08T04:05:09;99822.41;;;10.59;59.98
25947;BME280;13745;51.470;9.894;2023-04-08T04:07:54;99824.09;;;10.59;60.06
25947;BME280;13745;51.470;9.894;2023-04-08T04:10:41;99832.75;;;10.58;59.88
25947;BME280;13745;51.470;9.894;2023-04-08T04:13:27;99835.38;;;10.55;60.16
25947;BME280;13745;51.470;9.894;2023-04-08T04:16:12;99846.63;;;10.54;60.30
25947;BME280;13745;51.470;9.894;2023-04-08T04:18:57;99842.31;;;10.51;60.17
25947;BME280;13745;51.470;9.894;2023-04-08T04:21:42;99850.09;;;10.51;60.59
25947;BME280;13745;51.470;9.894;2023-04-08T04:24:27;99857.88;;;10.50;60.68
25947;BME280;13745;51.470;9.894;2023-04-08T04:27:12;99852.69;;;10.50;60.88
25947;BME280;13745;51.470;9.894;2023-04-08T04:30:00;99843.19;;;10.49;60.65
25947;BME280;13745;51.470;9.894;2023-04-08T04:32:45;99845.78;;;10.49;60.59
25947;BME280;13745;51.470;9.894;2023-04-08T04:35:30;99849.22;;;10.49;60.98
25947;BME280;13745;51.470;9.894;2023-04-08T04:38:15;99855.28;;;10.48;60.72
25947;BME280;13745;51.470;9.894;2023-04-08T04:41:00;99844.94;;;10.47;60.93
25947;BME280;13745;51.470;9.894;2023-04-08T04:43:45;99853.56;;;10.47;61.33
25947;BME280;13745;51.470;9.894;2023-04-08T04:46:31;99854.47;;;10.45;61.00
25947;BME280;13745;51.470;9.894;2023-04-08T04:49:17;99865.69;;;10.44;61.11
25947;BME280;13745;51.470;9.894;2023-04-08T04:52:02;99860.50;;;10.40;61.37
25947;BME280;13745;51.470;9.894;2023-04-08T04:54:48;99862.25;;;10.38;61.14
25947;BME280;13745;51.470;9.894;2023-04-08T04:57:33;99864.00;;;10.36;61.20
25947;BME280;13745;51.470;9.894;2023-04-08T05:00:19;99866.59;;;10.35;61.48
25947;BME280;13745;51.470;9.894;2023-04-08T05:03:05;99867.44;;;10.34;61.70
25947;BME280;13745;51.470;9.894;2023-04-08T05:05:50;99861.41;;;10.32;61.65
25947;BME280;13745;51.470;9.894;2023-04-08T05:08:36;99870.06;;;10.31;61.94
25947;BME280;13745;51.470;9.894;2023-04-08T05:11:21;99864.88;;;10.31;61.65
25947;BME280;13745;51.470;9.894;2023-04-08T05:14:06;99874.38;;;10.29;62.02
25947;BME280;13745;51.470;9.894;2023-04-08T05:16:51;99876.13;;;10.28;62.07
25947;BME280;13745;51.470;9.894;2023-04-08T05:19:38;99878.72;;;10.27;61.86
25947;BME280;13745;51.470;9.894;2023-04-08T05:22:23;99885.63;;;10.25;61.92
25947;BME280;13745;51.470;9.894;2023-04-08T05:25:08;99884.78;;;10.23;61.97
25947;BME280;13745;51.470;9.894;2023-04-08T05:27:54;99891.66;;;10.24;62.03
25947;BME280;13745;51.470;9.894;2023-04-08T05:30:39;99892.53;;;10.24;62.53
25947;BME280;13745;51.470;9.894;2023-04-08T05:33:25;99895.97;;;10.25;62.16
25947;BME280;13745;51.470;9.894;2023-04-08T05:36:12;99897.72;;;10.23;62.23
25947;BME280;13745;51.470;9.894;2023-04-08T05:38:57;99901.16;;;10.25;62.26
25947;BME280;13745;51.470;9.894;2023-04-08T05:41:42;99898.59;;;10.23;62.61
25947;BME280;13745;51.470;9.894;2023-04-08T05:44:27;99902.03;;;10.24;62.57
25947;BME280;13745;51.470;9.894;2023-04-08T05:47:13;99902.03;;;10.24;62.50
25947;BME280;13745;51.470;9.894;2023-04-08T05:49:59;99902.88;;;10.21;62.43
25947;BME280;13745;51.470;9.894;2023-04-08T05:52:45;99908.94;;;10.22;62.79
25947;BME280;13745;51.470;9.894;2023-04-08T05:55:30;99905.50;;;10.23;62.78
25947;BME280;13745;51.470;9.894;2023-04-08T05:58:15;99903.75;;;10.23;62.58
25947;BME280;13745;51.470;9.894;2023-04-08T06:01:00;99902.03;;;10.22;62.75
25947;BME280;13745;51.470;9.894;2023-04-08T06:03:45;99906.34;;;10.23;62.76
25947;BME280;13745;51.470;9.894;2023-04-08T06:06:30;99906.34;;;10.20;62.75
25947;BME280;13745;51.470;9.894;2023-04-08T06:09:17;99905.50;;;10.20;63.14
25947;BME280;13745;51.470;9.894;2023-04-08T06:12:02;99911.53;;;10.20;63.21
25947;BME280;13745;51.470;9.894;2023-04-08T06:14:52;99921.03;;;10.20;63.60
25947;BME280;13745;51.470;9.894;2023-04-08T06:17:38;99915.84;;;10.21;63.23
25947;BME280;13745;51.470;9.894;2023-04-08T06:20:23;99922.78;;;10.22;63.17
25947;BME280;13745;51.470;9.894;2023-04-08T06:23:08;99921.91;;;10.23;63.45
25947;BME280;13745;51.470;9.894;2023-04-08T06:25:54;99923.63;;;10.24;63.46
25947;BME280;13745;51.470;9.894;2023-04-08T06:28:39;99923.63;;;10.29;63.58
25947;BME280;13745;51.470;9.894;2023-04-08T06:31:24;99920.16;;;10.30;63.65
25947;BME280;13745;51.470;9.894;2023-04-08T06:34:10;99927.91;;;10.33;64.02
25947;BME280;13745;51.470;9.894;2023-04-08T06:36:55;99921.00;;;10.38;64.23
25947;BME280;13745;51.470;9.894;2023-04-08T06:39:40;99924.44;;;10.45;63.94
25947;BME280;13745;51.470;9.894;2023-04-08T06:42:26;99930.44;;;10.50;64.21
25947;BME280;13745;51.470;9.894;2023-04-08T06:45:31;99924.38;;;10.54;63.86
25947;BME280;13745;51.470;9.894;2023-04-08T06:48:16;99930.38;;;10.59;64.23
25947;BME280;13745;51.470;9.894;2023-04-08T06:51:01;99931.25;;;10.64;64.08
25947;BME280;13745;51.470;9.894;2023-04-08T06:53:47;99943.31;;;10.69;64.07
25947;BME280;13745;51.470;9.894;2023-04-08T06:56:32;99952.81;;;10.71;64.42
25947;BME280;13745;51.470;9.894;2023-04-08T06:59:18;99940.72;;;10.71;64.14
25947;BME280;13745;51.470;9.894;2023-04-08T07:02:03;99949.34;;;10.75;64.44
25947;BME280;13745;51.470;9.894;2023-04-08T07:04:49;99949.34;;;10.78;64.25
25947;BME280;13745;51.470;9.894;2023-04-08T07:07:34;99952.78;;;10.80;64.15
25947;BME280;13745;51.470;9.894;2023-04-08T07:10:19;99958.81;;;10.80;64.14
25947;BME280;13745;51.470;9.894;2023-04-08T07:13:04;99959.72;;;10.78;64.34
25947;BME280;13745;51.470;9.894;2023-04-08T07:15:51;99969.19;;;10.76;64.43
25947;BME280;13745;51.470;9.894;2023-04-08T07:18:36;99977.00;;;10.74;64.22
25947;BME280;13745;51.470;9.894;2023-04-08T07:21:21;99975.28;;;10.73;64.54
25947;BME280;13745;51.470;9.894;2023-04-08T07:24:06;99983.03;;;10.75;64.63
25947;BME280;13745;51.470;9.894;2023-04-08T07:26:51;99975.28;;;10.72;64.76
25947;BME280;13745;51.470;9.894;2023-04-08T07:29:37;99987.38;;;10.74;64.48
25947;BME280;13745;51.470;9.894;2023-04-08T07:32:24;99983.91;;;10.74;64.43
25947;BME280;13745;51.470;9.894;2023-04-08T07:35:09;99986.50;;;10.74;65.01
25947;BME280;13745;51.470;9.894;2023-04-08T07:37:54;99980.47;;;10.76;64.75
25947;BME280;13745;51.470;9.894;2023-04-08T07:40:40;99988.22;;;10.78;64.97
25947;BME280;13745;51.470;9.894;2023-04-08T07:43:25;99994.25;;;10.81;65.06
25947;BME280;13745;51.470;9.894;2023-04-08T07:46:10;99995.97;;;10.82;64.96
25947;BME280;13745;51.470;9.894;2023-04-08T07:48:56;99998.56;;;10.84;65.22
25947;BME280;13745;51.470;9.894;2023-04-08T07:51:42;100004.63;;;10.86;65.15
25947;BME280;13745;51.470;9.894;2023-04-08T07:54:27;100008.06;;;10.86;65.17
25947;BME280;13745;51.470;9.894;2023-04-08T07:57:11;100003.75;;;10.87;64.96
25947;BME280;13745;51.470;9.894;2023-04-08T07:59:56;100010.66;;;10.89;64.85
25947;BME280;13745;51.470;9.894;2023-04-08T08:02:41;100011.53;;;10.88;65.27
25947;BME280;13745;51.470;9.894;2023-04-08T08:05:28;100016.72;;;10.87;65.11
25947;BME280;13745;51.470;9.894;2023-04-08T08:08:13;100019.31;;;10.87;65.06
25947;BME280;13745;51.470;9.894;2023-04-08T08:10:58;100027.06;;;10.90;65.18
25947;BME280;13745;51.470;9.894;2023-04-08T08:13:44;100029.66;;;10.90;65.41
25947;BME280;13745;51.470;9.894;2023-04-08T08:16:29;100016.69;;;10.91;65.17
25947;BME280;13745;51.470;9.894;2023-04-08T08:19:14;100025.34;;;10.90;65.14
25947;BME280;13745;51.470;9.894;2023-04-08T08:22:00;100027.91;;;10.92;65.53
25947;BME280;13745;51.470;9.894;2023-04-08T08:24:46;100032.25;;;10.93;65.22
25947;BME280;13745;51.470;9.894;2023-04-08T08:27:31;100027.06;;;10.93;65.68
25947;BME280;13745;51.470;9.894;2023-04-08T08:30:17;100037.44;;;10.94;65.70
25947;BME280;13745;51.470;9.894;2023-04-08T08:33:04;100033.09;;;10.95;65.47
25947;BME280;13745;51.470;9.894;2023-04-08T08:35:49;100037.41;;;10.97;65.79
25947;BME280;13745;51.470;9.894;2023-04-08T08:38:36;100042.59;;;11.01;65.86
25947;BME280;13745;51.470;9.894;2023-04-08T08:41:21;100046.91;;;11.03;65.83
25947;BME280;13745;51.470;9.894;2023-04-08T08:44:07;100046.91;;;11.03;65.87
25947;BME280;13745;51.470;9.894;2023-04-08T08:46:53;100046.03;;;11.04;65.77
25947;BME280;13745;51.470;9.894;2023-04-08T08:49:39;100047.75;;;11.07;65.80
25947;BME280;13745;51.470;9.894;2023-04-08T08:52:24;100053.78;;;11.09;65.64
25947;BME280;13745;51.470;9.894;2023-04-08T08:55:11;100053.78;;;11.12;66.16
25947;BME280;13745;51.470;9.894;2023-04-08T08:57:55;100052.03;;;11.15;65.88
25947;BME280;13745;51.470;9.894;2023-04-08T09:00:41;100059.81;;;11.15;66.03
25947;BME280;13745;51.470;9.894;2023-04-08T09:03:27;100071.06;;;11.17;65.88
25947;BME280;13745;51.470;9.894;2023-04-08T09:06:17;100063.25;;;11.16;66.02
25947;BME280;13745;51.470;9.894;2023-04-08T09:09:02;100070.19;;;11.17;65.74
25947;BME280;13745;51.470;9.894;2023-04-08T09:12:02;100070.19;;;11.18;66.24
25947;BME280;13745;51.470;9.894;2023-04-08T09:14:47;100070.19;;;11.20;66.00
25947;BME280;13745;51.470;9.894;2023-04-08T09:17:34;100069.28;;;11.22;65.79
25947;BME280;13745;51.470;9.894;2023-04-08T09:20:20;100081.38;;;11.25;65.84
25947;BME280;13745;51.470;9.894;2023-04-08T09:23:05;100083.97;;;11.25;66.05
25947;BME280;13745;51.470;9.894;2023-04-08T09:25:50;100080.53;;;11.24;65.89
25947;BME280;13745;51.470;9.894;2023-04-08T09:28:36;100081.41;;;11.27;65.97
25947;BME280;13745;51.470;9.894;2023-04-08T09:31:23;100083.97;;;11.28;66.23
25947;BME280;13745;51.470;9.894;2023-04-08T09:34:10;100083.09;;;11.29;65.98
25947;BME280;13745;51.470;9.894;2023-04-08T09:36:56;100082.22;;;11.32;66.28
25947;BME280;13745;51.470;9.894;2023-04-08T09:39:40;100083.09;;;11.31;66.00
25947;BME280;13745;51.470;9.894;2023-04-08T09:42:26;100090.88;;;11.34;66.22
25947;BME280;13745;51.470;9.894;2023-04-08T09:45:13;100080.50;;;11.35;66.40
25947;BME280;13745;51.470;9.894;2023-04-08T09:48:08;100083.91;;;11.39;66.27
25947;BME280;13745;51.470;9.894;2023-04-08T09:50:54;100089.09;;;11.43;66.07
25947;BME280;13745;51.470;9.894;2023-04-08T09:53:46;100083.00;;;11.47;66.48
25947;BME280;13745;51.470;9.894;2023-04-08T09:56:36;100089.03;;;11.52;66.29
25947;BME280;13745;51.470;9.894;2023-04-08T09:59:26;100087.28;;;11.59;65.90
25947;BME280;13745;51.470;9.894;2023-04-08T10:02:22;100087.25;;;11.64;66.32
25947;BME280;13745;51.470;9.894;2023-04-08T10:05:12;100088.91;;;11.72;66.29
25947;BME280;13745;51.470;9.894;2023-04-08T10:07:57;100090.59;;;11.79;66.19
25947;BME280;13745;51.470;9.894;2023-04-08T10:10:43;100091.47;;;11.86;66.15
25947;BME280;13745;51.470;9.894;2023-04-08T10:13:29;100098.34;;;11.93;66.03
25947;BME280;13745;51.470;9.894;2023-04-08T10:16:22;100101.75;;;11.97;66.14
25947;BME280;13745;51.470;9.894;2023-04-08T10:19:36;100105.16;;;12.06;66.24
25947;BME280;13745;51.470;9.894;2023-04-08T10:22:45;100097.34;;;12.08;66.11
25947;BME280;13745;51.470;9.894;2023-04-08T10:25:31;100107.72;;;12.08;65.95
25947;BME280;13745;51.470;9.894;2023-04-08T10:28:23;100103.34;;;12.15;65.87
25947;BME280;13745;51.470;9.894;2023-04-08T10:31:20;100105.91;;;12.21;66.05
25947;BME280;13745;51.470;9.894;2023-04-08T10:34:14;100108.50;;;12.25;65.91
25947;BME280;13745;51.470;9.894;2023-04-08T10:37:01;100111.03;;;12.30;65.70
25947;BME280;13745;51.470;9.894;2023-04-08T10:39:49;100106.69;;;12.33;65.71
25947;BME280;13745;51.470;9.894;2023-04-08T10:42:37;100111.78;;;12.41;65.62
25947;BME280;13745;51.470;9.894;2023-04-08T10:45:22;100108.25;;;12.48;65.97
25947;BME280;13745;51.470;9.894;2023-04-08T10:48:15;100107.31;;;12.55;65.93
25947;BME280;13745;51.470;9.894;2023-04-08T10:51:03;100100.28;;;12.68;65.66
25947;BME280;13745;51.470;9.894;2023-04-08T10:53:49;100097.50;;;12.82;65.78
25947;BME280;13745;51.470;9.894;2023-04-08T10:56:35;100097.38;;;12.96;65.62
25947;BME280;13745;51.470;9.894;2023-04-08T10:59:26;100097.16;;;13.12;65.64
25947;BME280;13745;51.470;9.894;2023-04-08T11:02:12;100091.00;;;13.24;65.26
25947;BME280;13745;51.470;9.894;2023-04-08T11:04:58;100102.97;;;13.37;65.28
25947;BME280;13745;51.470;9.894;2023-04-08T11:07:43;100093.25;;;13.48;65.02
25947;BME280;13745;51.470;9.894;2023-04-08T11:10:35;100094.91;;;13.57;64.57
25947;BME280;13745;51.470;9.894;2023-04-08T11:13:21;100098.25;;;13.65;64.47
25947;BME280;13745;51.470;9.894;2023-04-08T11:16:07;100091.19;;;13.72;64.21
25947;BME280;13745;51.470;9.894;2023-04-08T11:18:52;100093.72;;;13.78;64.39
25947;BME280;13745;51.470;9.894;2023-04-08T11:21:38;100099.72;;;13.83;64.16
25947;BME280;13745;51.470;9.894;2023-04-08T11:24:23;100102.31;;;13.85;63.95
25947;BME280;13745;51.470;9.894;2023-04-08T11:27:10;100111.00;;;13.84;63.89
25947;BME280;13745;51.470;9.894;2023-04-08T11:29:56;100104.09;;;13.83;63.67
25947;BME280;13745;51.470;9.894;2023-04-08T11:32:41;100108.44;;;13.81;63.53
25947;BME280;13745;51.470;9.894;2023-04-08T11:35:27;100100.63;;;13.79;63.84
25947;BME280;13745;51.470;9.894;2023-04-08T11:38:13;100105.81;;;13.84;63.72
25947;BME280;13745;51.470;9.894;2023-04-08T11:40:59;100099.59;;;13.89;63.70
25947;BME280;13745;51.470;9.894;2023-04-08T11:43:53;100110.84;;;13.94;63.73
25947;BME280;13745;51.470;9.894;2023-04-08T11:46:38;100111.66;;;13.96;63.71
25947;BME280;13745;51.470;9.894;2023-04-08T11:49:25;100110.78;;;13.99;63.45
25947;BME280;13745;51.470;9.894;2023-04-08T11:52:10;100112.47;;;14.01;63.65
25947;BME280;13745;51.470;9.894;2023-04-08T11:54:55;100110.72;;;14.02;63.44
25947;BME280;13745;51.470;9.894;2023-04-08T11:57:40;100103.78;;;14.01;63.31
25947;BME280;13745;51.470;9.894;2023-04-08T12:00:26;100101.22;;;13.99;63.40
25947;BME280;13745;51.470;9.894;2023-04-08T12:03:12;100105.53;;;14.00;63.12
25947;BME280;13745;51.470;9.894;2023-04-08T12:05:57;100109.88;;;14.01;63.21
25947;BME280;13745;51.470;9.894;2023-04-08T12:08:42;100110.75;;;14.00;63.12
25947;BME280;13745;51.470;9.894;2023-04-08T12:11:27;100114.19;;;14.02;63.06
25947;BME280;13745;51.470;9.894;2023-04-08T12:14:12;100111.56;;;14.04;63.12
25947;BME280;13745;51.470;9.894;2023-04-08T12:16:59;100113.31;;;14.03;63.24
25947;BME280;13745;51.470;9.894;2023-04-08T12:19:44;100104.56;;;14.08;63.13
25947;BME280;13745;51.470;9.894;2023-04-08T12:22:29;100099.25;;;14.12;63.16
25947;BME280;13745;51.470;9.894;2023-04-08T12:25:14;100107.84;;;14.19;63.39
25947;BME280;13745;51.470;9.894;2023-04-08T12:27:59;100106.03;;;14.22;63.05
25947;BME280;13745;51.470;9.894;2023-04-08T12:30:44;100097.19;;;14.32;63.42
25947;BME280;13745;51.470;9.894;2023-04-08T12:33:31;100103.81;;;14.53;63.37
25947;BME280;13745;51.470;9.894;2023-04-08T12:36:17;100112.00;;;14.80;63.30
25947;BME280;13745;51.470;9.894;2023-04-08T12:39:02;100101.09;;;15.04;63.13
25947;BME280;13745;51.470;9.894;2023-04-08T12:41:47;100107.50;;;15.33;62.82
25947;BME280;13745;51.470;9.894;2023-04-08T12:44:32;100102.56;;;15.59;62.71
25947;BME280;13745;51.470;9.894;2023-04-08T12:47:17;100092.41;;;15.86;62.52
25947;BME280;13745;51.470;9.894;2023-04-08T12:50:05;100090.38;;;15.98;61.82
25947;BME280;13745;51.470;9.894;2023-04-08T12:52:52;100096.31;;;16.04;61.31
25947;BME280;13745;51.470;9.894;2023-04-08T12:55:37;100108.69;;;15.97;61.01
25947;BME280;13745;51.470;9.894;2023-04-08T12:58:22;100104.47;;;15.91;60.78
25947;BME280;13745;51.470;9.894;2023-04-08T13:01:08;100096.69;;;15.90;60.70
25947;BME280;13745;51.470;9.894;2023-04-08T13:03:54;100091.28;;;15.96;60.92
25947;BME280;13745;51.470;9.894;2023-04-08T13:06:41;100090.09;;;16.09;60.89
25947;BME280;13745;51.470;9.894;2023-04-08T13:09:26;100094.28;;;16.16;60.58
25947;BME280;13745;51.470;9.894;2023-04-08T13:12:13;100092.66;;;16.11;60.15
25947;BME280;13745;51.470;9.894;2023-04-08T13:14:58;100092.81;;;16.06;60.33
25947;BME280;13745;51.470;9.894;2023-04-08T13:17:44;100090.16;;;16.08;60.27
25947;BME280;13745;51.470;9.894;2023-04-08T13:20:29;100094.47;;;16.09;60.29
25947;BME280;13745;51.470;9.894;2023-04-08T13:23:15;100092.00;;;16.02;60.18
25947;BME280;13745;51.470;9.894;2023-04-08T13:26:01;100092.13;;;15.98;59.96
25947;BME280;13745;51.470;9.894;2023-04-08T13:28:46;100085.16;;;15.97;60.11
25947;BME280;13745;51.470;9.894;2023-04-08T13:31:31;100085.91;;;16.02;60.14
25947;BME280;13745;51.470;9.894;2023-04-08T13:34:16;100079.72;;;16.05;60.13
25947;BME280;13745;51.470;9.894;2023-04-08T13:37:01;100090.28;;;16.01;59.67
25947;BME280;13745;51.470;9.894;2023-04-08T13:39:48;100093.03;;;15.95;59.75
25947;BME280;13745;51.470;9.894;2023-04-08T13:42:33;100083.69;;;15.85;59.71
25947;BME280;13745;51.470;9.894;2023-04-08T13:45:19;100088.28;;;15.76;60.09
25947;BME280;13745;51.470;9.894;2023-04-08T13:48:04;100088.38;;;15.72;60.10
25947;BME280;13745;51.470;9.894;2023-04-08T13:50:49;100091.00;;;15.71;60.18
25947;BME280;13745;51.470;9.894;2023-04-08T13:53:34;100082.25;;;15.72;60.13
25947;BME280;13745;51.470;9.894;2023-04-08T13:56:20;100074.44;;;15.70;60.03
25947;BME280;13745;51.470;9.894;2023-04-08T13:59:05;100084.88;;;15.72;60.15
25947;BME280;13745;51.470;9.894;2023-04-08T14:01:52;100083.28;;;15.66;59.98
25947;BME280;13745;51.470;9.894;2023-04-08T14:04:37;100081.50;;;15.67;59.83
25947;BME280;13745;51.470;9.894;2023-04-08T14:07:23;100072.75;;;15.69;60.05
25947;BME280;13745;51.470;9.894;2023-04-08T14:10:08;100082.25;;;15.73;60.05
25947;BME280;13745;51.470;9.894;2023-04-08T14:12:55;100084.84;;;15.73;59.76
25947;BME280;13745;51.470;9.894;2023-04-08T14:15:40;100084.88;;;15.72;59.79
25947;BME280;13745;51.470;9.894;2023-04-08T14:18:25;100086.75;;;15.67;59.77
25947;BME280;13745;51.470;9.894;2023-04-08T14:21:10;100080.75;;;15.62;59.96
25947;BME280;13745;51.470;9.894;2023-04-08T14:23:57;100088.69;;;15.57;60.06
25947;BME280;13745;51.470;9.894;2023-04-08T14:26:42;100086.19;;;15.51;60.00
25947;BME280;13745;51.470;9.894;2023-04-08T14:29:28;100078.44;;;15.48;60.10
25947;BME280;13745;51.470;9.894;2023-04-08T14:32:13;100088.88;;;15.48;60.12
25947;BME280;13745;51.470;9.894;2023-04-08T14:34:59;100084.59;;;15.44;60.04